Time;durP1;ratioP1;P1;durP2;ratioP2;P2;SDS_P1;SDS_P2;PMS_P1;PMS_P2;Temp;Humidity;BMP_temperature;BMP_pressure;BME280_temperature;BME280_humidity;BME280_pressure;Samples;Min_cycle;Max_cycle;Signal;HPM_P1;HPM_P2
2022/11/06 00:00:43;;;;;;;15.60;9.38;;;5.50;76.70;;;;;;5075772;28;20032;-16
2022/11/06 00:03:09;;;;;;;18.50;10.23;;;5.40;76.70;;;;;;5074921;28;20036;-17
2022/11/06 00:08:35;;;;;;;19.83;10.93;;;5.40;76.30;;;;;;5075239;28;20040;-18
2022/11/06 00:11:09;;;;;;;23.73;12.50;;;5.40;76.80;;;;;;5075279;28;20027;-17
2022/11/06 00:13:36;;;;;;;18.55;10.77;;;5.30;76.90;;;;;;5074936;28;20484;-16
2022/11/06 00:16:04;;;;;;;16.10;10.80;;;5.30;76.90;;;;;;5074707;28;20020;-16
2022/11/06 00:18:31;;;;;;;15.15;8.98;;;5.20;77.00;;;;;;5074944;28;20498;-16
2022/11/06 00:20:57;;;;;;;15.40;9.88;;;5.20;76.80;;;;;;5074658;28;20556;-18
2022/11/06 00:23:23;;;;;;;15.40;10.13;;;5.10;76.80;;;;;;5073570;28;20016;-17
2022/11/06 00:25:54;;;;;;;18.30;11.15;;;5.10;76.80;;;;;;5075026;28;20062;-18
2022/11/06 00:28:21;;;;;;;16.05;9.27;;;5.00;77.20;;;;;;5074825;28;20020;-19
2022/11/06 00:30:47;;;;;;;16.20;9.82;;;5.00;76.80;;;;;;5074683;28;20032;-18
2022/11/06 00:33:13;;;;;;;15.50;9.52;;;4.90;76.90;;;;;;5074197;28;20047;-18
2022/11/06 00:35:39;;;;;;;11.77;7.55;;;4.90;77.20;;;;;;5074539;28;20126;-16
2022/11/06 00:38:06;;;;;;;14.68;9.57;;;4.90;77.10;;;;;;5074553;28;20037;-16
2022/11/06 00:40:33;;;;;;;20.83;10.45;;;4.90;77.00;;;;;;5073302;28;20532;-17
2022/11/06 00:42:59;;;;;;;21.65;13.65;;;4.80;77.20;;;;;;5074866;28;20067;-17
2022/11/06 00:45:25;;;;;;;22.50;13.23;;;4.90;77.60;;;;;;5074382;28;20020;-17
2022/11/06 00:47:51;;;;;;;24.17;12.40;;;4.80;77.10;;;;;;5074219;28;20111;-15
2022/11/06 00:50:18;;;;;;;20.20;12.77;;;4.80;77.30;;;;;;5074568;28;20032;-17
2022/11/06 00:52:44;;;;;;;18.38;11.25;;;4.80;77.30;;;;;;5074163;28;20040;-17
2022/11/06 00:55:10;;;;;;;22.75;13.45;;;4.90;77.40;;;;;;5074321;28;20078;-16
2022/11/06 00:57:36;;;;;;;19.63;11.93;;;4.90;77.50;;;;;;5074732;28;20033;-17
2022/11/06 01:00:03;;;;;;;20.30;11.90;;;4.90;77.60;;;;;;5056213;28;20105;-18
2022/11/06 01:02:29;;;;;;;18.08;11.43;;;4.90;77.80;;;;;;5074184;28;20407;-18
2022/11/06 01:04:55;;;;;;;21.63;11.25;;;5.00;77.70;;;;;;5073759;28;20116;-19
2022/11/06 01:07:22;;;;;;;13.07;8.27;;;5.00;77.70;;;;;;5074433;28;20023;-17
2022/11/06 01:09:49;;;;;;;15.63;10.57;;;5.00;77.80;;;;;;5074056;28;20020;-18
2022/11/06 01:12:14;;;;;;;18.48;12.43;;;5.00;77.80;;;;;;5073724;28;20035;-18
2022/11/06 01:14:41;;;;;;;20.73;13.05;;;5.00;77.60;;;;;;5073813;28;20123;-18
2022/11/06 01:17:07;;;;;;;20.80;12.18;;;5.00;77.50;;;;;;5073531;28;20489;-17
2022/11/06 01:19:33;;;;;;;15.95;9.02;;;5.10;77.90;;;;;;5073735;28;20039;-18
2022/11/06 01:21:59;;;;;;;15.45;10.07;;;5.10;78.00;;;;;;5073890;28;20021;-17
2022/11/06 01:24:27;;;;;;;17.30;9.13;;;5.10;78.10;;;;;;5073782;28;20024;-15
2022/11/06 01:26:54;;;;;;;16.23;10.15;;;5.00;77.90;;;;;;5073172;28;20036;-15
2022/11/06 01:29:20;;;;;;;16.25;9.70;;;5.00;78.00;;;;;;5073593;28;20477;-18
2022/11/06 01:31:50;;;;;;;14.25;8.48;;;5.00;77.90;;;;;;5073442;28;20035;-16
2022/11/06 01:34:17;;;;;;;14.57;8.70;;;4.90;77.80;;;;;;5073896;28;20043;-16
2022/11/06 01:36:43;;;;;;;16.15;9.43;;;4.90;77.70;;;;;;5073592;28;20365;-16
2022/11/06 01:39:12;;;;;;;13.75;8.13;;;4.90;77.70;;;;;;5073541;28;20028;-16
2022/11/06 01:41:42;;;;;;;15.13;9.00;;;4.80;77.60;;;;;;5073707;28;20078;-17
2022/11/06 01:44:42;;;;;;;11.18;7.22;;;4.70;77.70;;;;;;5073393;28;20107;-16
2022/11/06 01:47:22;;;;;;;20.52;9.70;;;4.70;77.60;;;;;;5073061;28;20029;-16
2022/11/06 01:49:52;;;;;;;18.05;10.88;;;4.70;77.70;;;;;;5073896;28;20476;-16
2022/11/06 01:52:19;;;;;;;18.15;10.82;;;4.60;77.60;;;;;;5071908;28;20063;-16
2022/11/06 01:54:50;;;;;;;19.10;11.80;;;4.50;77.90;;;;;;5073495;28;20537;-16
2022/11/06 01:57:16;;;;;;;18.13;11.73;;;4.50;77.90;;;;;;5073586;28;20020;-16
2022/11/06 01:59:44;;;;;;;15.85;10.35;;;4.40;78.10;;;;;;5073177;28;20504;-17
2022/11/06 02:02:11;;;;;;;11.85;7.13;;;4.50;78.30;;;;;;5073364;28;20043;-17
2022/11/06 02:04:41;;;;;;;13.27;8.35;;;4.40;78.10;;;;;;5071933;28;20028;-15
2022/11/06 02:07:08;;;;;;;14.82;8.32;;;4.50;78.20;;;;;;5073163;28;20468;-16
2022/11/06 02:09:34;;;;;;;10.32;6.80;;;4.40;78.10;;;;;;5072993;28;20032;-16
2022/11/06 02:12:24;;;;;;;10.95;6.85;;;4.40;78.10;;;;;;5072956;28;20070;-15
2022/11/06 02:15:11;;;;;;;15.52;10.40;;;4.40;78.10;;;;;;5073144;28;20047;-17
2022/11/06 02:17:49;;;;;;;17.90;11.40;;;4.40;78.20;;;;;;5073157;28;20036;-16
2022/11/06 02:20:18;;;;;;;18.67;10.63;;;4.30;78.40;;;;;;5073860;28;20020;-17
2022/11/06 02:23:00;;;;;;;16.88;10.57;;;4.30;78.30;;;;;;5072931;28;20435;-16
2022/11/06 02:25:39;;;;;;;15.85;9.80;;;4.20;78.60;;;;;;5072957;28;20025;-14
2022/11/06 02:28:26;;;;;;;15.23;9.35;;;4.20;79.00;;;;;;5073270;28;20051;-14
2022/11/06 02:30:56;;;;;;;14.57;9.40;;;4.20;79.00;;;;;;5073014;28;20115;-17
2022/11/06 02:33:35;;;;;;;15.68;9.13;;;4.20;79.20;;;;;;5072800;28;20037;-17
2022/11/06 02:36:09;;;;;;;17.88;9.60;;;4.20;78.90;;;;;;5072858;28;20025;-18
2022/11/06 02:38:42;;;;;;;17.00;9.88;;;4.20;78.90;;;;;;5072966;28;20112;-18
2022/11/06 02:41:19;;;;;;;17.75;10.30;;;4.20;78.90;;;;;;5076566;28;20082;-17
2022/11/06 02:43:51;;;;;;;13.82;8.30;;;4.30;79.00;;;;;;5077291;28;20017;-17
2022/11/06 02:46:33;;;;;;;15.55;9.50;;;4.30;78.80;;;;;;5077077;28;20037;-17
2022/11/06 02:49:05;;;;;;;15.55;9.10;;;4.40;78.70;;;;;;5076499;28;20024;-16
2022/11/06 02:51:40;;;;;;;12.35;8.85;;;4.40;79.00;;;;;;5076909;28;20052;-18
2022/11/06 02:54:09;;;;;;;16.65;7.97;;;4.40;79.50;;;;;;5077034;28;20067;-17
2022/11/06 02:56:44;;;;;;;11.85;6.85;;;4.40;79.50;;;;;;5076580;28;20020;-17
2022/11/06 02:59:24;;;;;;;11.38;6.72;;;4.40;79.20;;;;;;5075098;28;20021;-17
2022/11/06 03:02:15;;;;;;;10.88;6.25;;;4.40;78.70;;;;;;5076241;28;20481;-19
2022/11/06 03:05:01;;;;;;;9.45;5.93;;;4.40;78.60;;;;;;5076662;28;20357;-17
2022/11/06 03:07:37;;;;;;;9.38;5.43;;;4.40;78.70;;;;;;5076645;28;20077;-16
2022/11/06 03:10:05;;;;;;;9.25;5.97;;;4.40;78.70;;;;;;5076954;28;20039;-17
2022/11/06 03:12:32;;;;;;;10.18;6.10;;;4.30;78.80;;;;;;5076396;28;20109;-18
2022/11/06 03:15:26;;;;;;;10.43;5.88;;;4.30;79.00;;;;;;5076208;28;20017;-17
2022/11/06 03:17:57;;;;;;;10.70;6.00;;;4.20;78.60;;;;;;5065715;28;20036;-16
2022/11/06 03:20:36;;;;;;;11.23;7.35;;;4.30;78.90;;;;;;5076081;28;20017;-17
2022/11/06 03:23:52;;;;;;;12.50;7.38;;;4.20;79.00;;;;;;5075791;28;20032;-17
2022/11/06 03:26:32;;;;;;;12.88;7.40;;;4.20;79.10;;;;;;5075815;28;20029;-16
2022/11/06 03:29:20;;;;;;;12.55;8.05;;;4.10;78.80;;;;;;5075646;28;20027;-17
2022/11/06 03:32:04;;;;;;;14.30;6.70;;;4.10;78.80;;;;;;5075768;28;20579;-16
2022/11/06 03:34:38;;;;;;;12.38;8.20;;;4.10;79.00;;;;;;5076712;28;20090;-17
2022/11/06 03:37:13;;;;;;;12.15;6.63;;;4.10;79.30;;;;;;5075556;28;20048;-18
2022/11/06 03:39:46;;;;;;;12.00;7.28;;;4.10;79.40;;;;;;5076070;28;20024;-18
2022/11/06 03:42:18;;;;;;;15.07;8.05;;;4.10;79.50;;;;;;5075708;28;20033;-17
2022/11/06 03:44:51;;;;;;;14.40;7.78;;;4.10;79.70;;;;;;5075650;28;20023;-17
2022/11/06 03:47:30;;;;;;;9.60;6.43;;;4.10;79.60;;;;;;5075801;28;20044;-16
2022/11/06 03:50:07;;;;;;;10.98;6.13;;;4.10;79.40;;;;;;5075312;28;20118;-18
2022/11/06 03:52:42;;;;;;;15.30;8.10;;;4.00;79.60;;;;;;5075740;28;20033;-17
2022/11/06 03:55:17;;;;;;;13.70;8.25;;;4.00;79.80;;;;;;5075791;28;20472;-18
2022/11/06 03:58:18;;;;;;;15.07;7.30;;;4.00;80.00;;;;;;5075405;28;20028;-17
2022/11/06 04:00:45;;;;;;;12.98;8.00;;;4.00;79.60;;;;;;5072366;28;20029;-17
2022/11/06 04:03:33;;;;;;;10.07;6.32;;;4.00;79.50;;;;;;5075392;28;20029;-16
2022/11/06 04:06:15;;;;;;;14.88;8.75;;;4.00;79.50;;;;;;5075234;28;20035;-17
2022/11/06 04:14:17;;;;;;;10.95;6.15;;;4.10;79.70;;;;;;5075068;28;20040;-16
2022/11/06 04:16:49;;;;;;;8.30;5.50;;;4.10;79.90;;;;;;5075037;28;20028;-16
2022/11/06 04:19:18;;;;;;;11.18;6.75;;;4.10;79.80;;;;;;5075043;28;20523;-17
2022/11/06 04:21:47;;;;;;;13.18;6.88;;;4.00;79.80;;;;;;5073616;28;20554;-17
2022/11/06 04:27:35;;;;;;;9.75;6.10;;;4.10;79.40;;;;;;5075164;28;20040;-19
2022/11/06 04:30:16;;;;;;;14.32;7.68;;;4.20;80.20;;;;;;5075074;28;20025;-18
2022/11/06 04:32:48;;;;;;;12.10;6.43;;;4.20;80.10;;;;;;5074454;28;20052;-18
2022/11/06 04:35:35;;;;;;;10.07;6.68;;;4.20;79.80;;;;;;5074871;28;20032;-17
2022/11/06 04:38:16;;;;;;;9.55;5.80;;;4.10;79.80;;;;;;5074595;28;20032;-16
2022/11/06 04:41:20;;;;;;;9.30;5.63;;;4.10;79.90;;;;;;5074872;28;20077;-17
2022/11/06 04:43:48;;;;;;;14.80;7.97;;;4.10;79.70;;;;;;5074412;28;20384;-16
2022/11/06 04:46:29;;;;;;;11.13;6.97;;;4.10;79.80;;;;;;5074329;28;20020;-19
2022/11/06 04:48:56;;;;;;;7.90;4.80;;;4.10;79.90;;;;;;5074276;28;20024;-18
2022/11/06 04:51:28;;;;;;;7.15;4.50;;;4.00;79.90;;;;;;5074339;28;20099;-17
2022/11/06 04:53:55;;;;;;;9.60;6.22;;;4.00;79.50;;;;;;5074518;28;20037;-18
2022/11/06 04:56:33;;;;;;;10.43;6.30;;;4.00;79.70;;;;;;5074502;28;20043;-17
2022/11/06 04:58:59;;;;;;;10.35;6.05;;;4.00;79.80;;;;;;5073861;28;20435;-18
2022/11/06 05:01:25;;;;;;;9.55;5.80;;;4.00;80.10;;;;;;5073299;28;20028;-17
2022/11/06 05:03:51;;;;;;;10.10;5.88;;;4.00;80.20;;;;;;5074445;28;20020;-18
2022/11/06 05:06:17;;;;;;;10.13;5.75;;;4.00;80.10;;;;;;5074591;28;20506;-16
2022/11/06 05:08:43;;;;;;;10.52;5.85;;;4.00;80.20;;;;;;5074590;28;20070;-17
2022/11/06 05:11:09;;;;;;;7.70;5.07;;;4.00;80.10;;;;;;5074618;28;20020;-16
2022/11/06 05:13:37;;;;;;;9.10;4.88;;;4.00;80.30;;;;;;5074418;28;20063;-17
2022/11/06 05:16:04;;;;;;;9.23;5.75;;;4.10;80.20;;;;;;5074112;28;20028;-17
2022/11/06 05:18:30;;;;;;;7.90;5.03;;;4.10;79.90;;;;;;5073841;28;20027;-17
2022/11/06 05:23:47;;;;;;;6.93;4.80;;;4.10;80.00;;;;;;5074314;28;20163;-16
2022/11/06 05:26:13;;;;;;;6.93;4.30;;;4.20;80.00;;;;;;5073976;28;20480;-19
2022/11/06 05:28:39;;;;;;;7.63;4.70;;;4.20;79.50;;;;;;5073998;28;20021;-18
2022/11/06 05:31:05;;;;;;;8.43;4.70;;;4.20;79.50;;;;;;5073346;28;20039;-17
2022/11/06 05:33:31;;;;;;;11.38;5.63;;;4.20;79.90;;;;;;5073261;28;20044;-18
2022/11/06 05:36:02;;;;;;;8.45;4.80;;;4.20;80.10;;;;;;5073553;28;20089;-16
2022/11/06 05:38:28;;;;;;;7.13;3.90;;;4.10;80.10;;;;;;5073827;28;20056;-18
2022/11/06 05:40:54;;;;;;;6.80;3.45;;;4.10;79.70;;;;;;5073287;28;20025;-17
2022/11/06 05:43:20;;;;;;;6.35;4.10;;;4.10;79.40;;;;;;5072171;28;20111;-17
2022/11/06 05:45:45;;;;;;;6.22;3.90;;;4.20;79.50;;;;;;5073302;28;20021;-19
2022/11/06 05:48:11;;;;;;;7.40;4.47;;;4.10;79.50;;;;;;5073183;28;20036;-18
2022/11/06 05:50:37;;;;;;;5.30;3.33;;;4.10;79.60;;;;;;5073262;28;20082;-17
2022/11/06 05:53:03;;;;;;;10.05;5.50;;;4.10;79.60;;;;;;5072988;28;20130;-17
2022/11/06 05:55:29;;;;;;;9.70;5.40;;;4.00;79.80;;;;;;5073231;28;20055;-17
2022/11/06 05:57:55;;;;;;;8.68;5.28;;;4.00;80.00;;;;;;5073649;28;20019;-18
2022/11/06 06:00:21;;;;;;;8.38;4.85;;;4.00;79.90;;;;;;5072158;28;20016;-17
2022/11/06 06:02:47;;;;;;;9.45;4.97;;;3.90;80.20;;;;;;5072956;28;20346;-19
2022/11/06 06:05:13;;;;;;;6.93;4.22;;;3.90;80.10;;;;;;5073434;28;20111;-17
2022/11/06 06:07:40;;;;;;;7.95;4.55;;;3.90;80.00;;;;;;5073648;28;20496;-15
2022/11/06 06:10:06;;;;;;;7.22;3.95;;;3.90;80.00;;;;;;5073074;28;20035;-18
2022/11/06 06:12:33;;;;;;;7.30;4.38;;;3.90;80.00;;;;;;5071724;28;20039;-16
2022/11/06 06:14:59;;;;;;;7.85;4.68;;;3.90;80.00;;;;;;5072851;28;20029;-17
2022/11/06 06:17:26;;;;;;;9.10;5.10;;;3.90;80.00;;;;;;5073252;28;20032;-17
2022/11/06 06:19:52;;;;;;;8.05;4.63;;;3.90;80.00;;;;;;5072960;28;20357;-17
2022/11/06 06:22:18;;;;;;;11.55;5.57;;;4.00;80.00;;;;;;5072947;28;20024;-18
2022/11/06 06:24:44;;;;;;;8.88;5.55;;;4.00;80.10;;;;;;5073377;28;20025;-18
2022/11/06 06:27:10;;;;;;;9.20;5.78;;;4.10;80.40;;;;;;5072630;28;20039;-17
2022/11/06 06:29:36;;;;;;;9.52;5.47;;;4.10;80.40;;;;;;5073721;28;20016;-17
2022/11/06 06:32:03;;;;;;;7.45;4.78;;;4.20;80.50;;;;;;5071282;28;20040;-15
2022/11/06 06:34:29;;;;;;;5.60;3.63;;;4.30;80.50;;;;;;5073062;28;20043;-14
2022/11/06 06:36:55;;;;;;;9.55;5.22;;;4.50;81.00;;;;;;5072875;28;20033;-14
2022/11/06 06:39:21;;;;;;;7.95;4.45;;;4.70;81.20;;;;;;5073110;28;20500;-14
2022/11/06 06:41:48;;;;;;;7.68;4.50;;;4.90;81.40;;;;;;5073077;28;20030;-14
2022/11/06 06:44:14;;;;;;;10.20;4.88;;;5.10;81.30;;;;;;5072772;28;20017;-16
2022/11/06 06:46:40;;;;;;;7.28;4.40;;;5.20;81.20;;;;;;5072690;28;20051;-17
2022/11/06 06:49:07;;;;;;;6.07;3.50;;;5.40;81.20;;;;;;5072701;28;20028;-18
2022/11/06 06:51:33;;;;;;;4.97;3.35;;;5.60;81.20;;;;;;5072965;28;20029;-17
2022/11/06 06:53:59;;;;;;;6.68;3.83;;;5.90;81.10;;;;;;5072490;28;20362;-16
2022/11/06 06:56:25;;;;;;;12.15;7.25;;;6.30;80.80;;;;;;5072669;28;20035;-14
2022/11/06 06:58:54;;;;;;;33.25;20.77;;;6.50;80.60;;;;;;5072314;28;20025;-16
2022/11/06 07:01:20;;;;;;;15.32;8.10;;;6.90;80.10;;;;;;5072607;28;20028;-13
2022/11/06 07:03:46;;;;;;;10.60;6.63;;;7.30;79.60;;;;;;5072436;28;20028;-15
2022/11/06 07:06:12;;;;;;;13.88;9.23;;;7.60;79.00;;;;;;5073426;28;20020;-14
2022/11/06 07:08:38;;;;;;;8.73;5.82;;;7.90;78.40;;;;;;5072497;28;20024;-13
2022/11/06 07:11:07;;;;;;;7.28;4.47;;;8.20;77.50;;;;;;5072287;28;20023;-17
2022/11/06 07:13:33;;;;;;;10.75;4.13;;;8.40;77.60;;;;;;5072713;28;20158;-14
2022/11/06 07:16:06;;;;;;;5.20;3.50;;;8.70;77.20;;;;;;5072437;28;20442;-12
2022/11/06 07:18:33;;;;;;;5.95;3.33;;;8.90;76.50;;;;;;5071144;28;20032;-17
2022/11/06 07:20:58;;;;;;;6.15;3.20;;;9.00;76.30;;;;;;5072283;28;20024;-16
2022/11/06 07:23:24;;;;;;;8.20;4.30;;;9.20;75.90;;;;;;5072391;28;20024;-16
2022/11/06 07:25:54;;;;;;;5.55;2.80;;;9.20;75.30;;;;;;5074675;28;20021;-17
2022/11/06 07:28:20;;;;;;;4.93;2.80;;;9.20;75.10;;;;;;5075973;28;20024;-14
2022/11/06 07:30:46;;;;;;;3.03;2.35;;;9.40;75.10;;;;;;5075886;28;20476;-16
2022/11/06 07:33:12;;;;;;;3.67;2.50;;;9.50;74.70;;;;;;5075443;28;20098;-18
2022/11/06 07:35:38;;;;;;;3.63;2.50;;;9.60;74.00;;;;;;5076106;28;20033;-17
2022/11/06 07:38:05;;;;;;;3.53;2.30;;;9.70;74.10;;;;;;5076064;28;20428;-17
2022/11/06 07:40:35;;;;;;;4.75;2.47;;;9.70;72.40;;;;;;5076026;28;20078;-16
2022/11/06 07:43:05;;;;;;;3.58;2.40;;;9.80;72.00;;;;;;5074254;28;20020;-17
2022/11/06 07:45:31;;;;;;;4.18;2.50;;;9.90;72.40;;;;;;5076212;28;20020;-17
2022/11/06 07:47:58;;;;;;;4.60;2.63;;;9.90;72.30;;;;;;5076365;28;20016;-16
2022/11/06 07:50:25;;;;;;;3.08;2.13;;;9.90;71.80;;;;;;5074583;28;20021;-17
2022/11/06 07:52:54;;;;;;;5.20;2.85;;;9.90;71.20;;;;;;5075429;28;20392;-17
2022/11/06 07:55:21;;;;;;;2.40;2.10;;;9.90;71.60;;;;;;5075423;28;20032;-17
2022/11/06 07:57:47;;;;;;;3.40;2.40;;;9.90;71.70;;;;;;5075700;28;20017;-16
2022/11/06 08:00:14;;;;;;;3.00;2.30;;;9.90;71.70;;;;;;5075342;28;20039;-17
2022/11/06 08:02:41;;;;;;;4.05;2.70;;;9.90;71.50;;;;;;5075561;28;20483;-16
2022/11/06 08:05:07;;;;;;;4.65;2.63;;;9.90;71.50;;;;;;5075109;28;20032;-16
2022/11/06 08:07:33;;;;;;;3.00;2.25;;;10.00;71.30;;;;;;5075231;28;20024;-17
2022/11/06 08:09:59;;;;;;;5.20;2.75;;;10.00;71.20;;;;;;5075180;28;20029;-16
2022/11/06 08:12:25;;;;;;;3.50;2.60;;;10.00;71.10;;;;;;5075057;28;20068;-17
2022/11/06 08:14:51;;;;;;;6.03;2.80;;;10.10;70.90;;;;;;5075158;28;20109;-16
2022/11/06 08:17:17;;;;;;;4.88;2.42;;;10.20;70.70;;;;;;5073732;28;20025;-17
2022/11/06 08:19:43;;;;;;;3.85;2.55;;;10.30;70.50;;;;;;5074951;28;20035;-18
2022/11/06 08:22:09;;;;;;;2.28;2.05;;;10.40;70.40;;;;;;5075263;28;20025;-18
2022/11/06 08:24:35;;;;;;;5.93;3.38;;;10.50;70.30;;;;;;5075193;28;20024;-16
2022/11/06 08:27:02;;;;;;;3.15;2.42;;;10.70;70.00;;;;;;5074611;28;20028;-18
2022/11/06 08:29:28;;;;;;;4.50;2.38;;;10.90;69.70;;;;;;5073855;28;20039;-18
2022/11/06 08:31:54;;;;;;;3.58;2.08;;;11.10;69.40;;;;;;5074872;28;20048;-18
2022/11/06 08:34:20;;;;;;;5.25;2.92;;;11.40;68.80;;;;;;5074551;28;20029;-17
2022/11/06 08:36:49;;;;;;;5.00;2.58;;;11.60;68.50;;;;;;5074682;28;20029;-17
2022/11/06 08:39:15;;;;;;;7.25;2.97;;;11.90;68.20;;;;;;5074590;28;20043;-18
2022/11/06 08:41:41;;;;;;;5.50;2.42;;;12.30;67.50;;;;;;5075151;28;20053;-18
2022/11/06 08:44:07;;;;;;;3.97;2.75;;;12.60;67.00;;;;;;5074753;28;20032;-17
2022/11/06 08:46:34;;;;;;;4.60;2.40;;;12.90;66.90;;;;;;5074742;28;20031;-18
2022/11/06 08:49:00;;;;;;;2.72;2.28;;;13.30;66.40;;;;;;5074193;28;20019;-15
2022/11/06 08:51:26;;;;;;;3.55;2.47;;;13.60;66.40;;;;;;5074537;28;20021;-18
2022/11/06 08:53:52;;;;;;;3.15;2.58;;;14.00;65.80;;;;;;5074426;28;20138;-16
2022/11/06 08:56:18;;;;;;;3.45;2.30;;;14.40;65.40;;;;;;5074171;28;20542;-16
2022/11/06 08:58:44;;;;;;;4.00;2.78;;;14.70;64.00;;;;;;5074251;28;20035;-17
2022/11/06 09:01:10;;;;;;;7.10;3.70;;;15.00;64.00;;;;;;5074268;28;20079;-16
2022/11/06 09:03:36;;;;;;;4.15;2.70;;;15.40;62.90;;;;;;5074414;28;20512;-17
2022/11/06 09:06:05;;;;;;;4.80;2.70;;;15.80;62.30;;;;;;5074219;28;20029;-16
2022/11/06 09:08:32;;;;;;;2.10;1.80;;;16.20;61.90;;;;;;5074330;28;20032;-16
2022/11/06 09:10:58;;;;;;;4.13;1.80;;;16.60;60.60;;;;;;5073843;28;20490;-18
2022/11/06 09:13:24;;;;;;;1.77;1.40;;;16.90;59.30;;;;;;5074324;28;20035;-16
2022/11/06 09:15:49;;;;;;;2.25;1.63;;;17.10;58.80;;;;;;5074087;28;20067;-17
2022/11/06 09:18:16;;;;;;;1.48;1.33;;;17.30;57.70;;;;;;5073700;28;20115;-17
2022/11/06 09:20:41;;;;;;;3.13;1.90;;;17.40;55.40;;;;;;5073760;28;20032;-17
2022/11/06 09:23:13;;;;;;;1.80;1.42;;;17.60;56.70;;;;;;5072263;28;20028;-17
2022/11/06 09:25:39;;;;;;;1.67;1.30;;;17.90;56.50;;;;;;5073745;28;20020;-16
2022/11/06 09:28:05;;;;;;;2.42;2.22;;;18.20;55.20;;;;;;5072480;28;20123;-17
2022/11/06 09:30:31;;;;;;;1.60;1.50;;;18.30;54.50;;;;;;5073847;28;20107;-16
2022/11/06 09:33:00;;;;;;;1.23;1.08;;;18.40;48.10;;;;;;5071758;28;20052;-15
2022/11/06 09:35:27;;;;;;;2.28;1.08;;;18.50;51.20;;;;;;5073846;28;20029;-16
2022/11/06 09:37:53;;;;;;;1.05;0.95;;;18.70;50.40;;;;;;5073804;28;20035;-15
2022/11/06 09:40:27;;;;;;;1.00;1.00;;;19.00;51.80;;;;;;5074091;28;20028;-17
2022/11/06 09:42:56;;;;;;;1.42;1.33;;;19.30;50.80;;;;;;5073140;28;20056;-15
2022/11/06 09:45:27;;;;;;;1.52;1.15;;;19.60;50.00;;;;;;5073589;28;20024;-15
2022/11/06 09:48:02;;;;;;;1.30;1.20;;;19.80;49.90;;;;;;5072808;28;20024;-15
2022/11/06 09:50:34;;;;;;;2.65;1.80;;;20.00;49.40;;;;;;5073313;28;20025;-15
2022/11/06 09:53:27;;;;;;;2.83;1.30;;;20.30;49.30;;;;;;5073041;28;20044;-15
2022/11/06 09:55:55;;;;;;;1.08;0.90;;;20.50;47.90;;;;;;5073628;28;20028;-16
2022/11/06 09:58:25;;;;;;;1.83;1.38;;;20.40;46.80;;;;;;5073248;28;20024;-15
2022/11/06 10:00:53;;;;;;;1.58;1.00;;;20.40;47.70;;;;;;5073613;28;20461;-17
2022/11/06 10:03:35;;;;;;;1.10;0.90;;;20.40;46.90;;;;;;5071833;28;20066;-15
2022/11/06 10:06:01;;;;;;;0.88;0.82;;;20.40;45.50;;;;;;5073527;28;20154;-15
2022/11/06 10:08:29;;;;;;;1.00;0.70;;;20.40;45.20;;;;;;5073092;28;20070;-15
2022/11/06 10:11:27;;;;;;;1.20;0.82;;;20.40;45.70;;;;;;5072857;28;20026;-15
2022/11/06 10:14:19;;;;;;;0.73;0.60;;;20.60;36.10;;;;;;5073391;28;20052;-16
2022/11/06 10:17:29;;;;;;;0.75;0.60;;;21.00;43.80;;;;;;5073396;28;20590;-15
2022/11/06 10:20:12;;;;;;;1.02;0.57;;;21.50;42.80;;;;;;5066757;28;20373;-16
2022/11/06 10:22:49;;;;;;;0.50;0.50;;;22.00;41.90;;;;;;5072023;28;20060;-15
2022/11/06 10:25:21;;;;;;;0.80;0.68;;;22.50;40.20;;;;;;5073014;28;20444;-15
2022/11/06 10:27:52;;;;;;;1.30;1.00;;;22.90;38.80;;;;;;5072995;28;20489;-16
2022/11/06 10:30:19;;;;;;;1.20;0.77;;;23.20;37.90;;;;;;5072952;28;20090;-16
2022/11/06 10:32:57;;;;;;;1.65;0.63;;;23.40;38.00;;;;;;5072477;28;20051;-15
2022/11/06 10:35:30;;;;;;;0.85;0.60;;;23.60;37.70;;;;;;5073143;28;20023;-16
2022/11/06 10:38:25;;;;;;;0.73;0.73;;;23.40;37.70;;;;;;5073234;28;20491;-15
2022/11/06 10:40:53;;;;;;;0.80;0.77;;;23.20;33.20;;;;;;5070344;28;20032;-14
2022/11/06 10:44:01;;;;;;;0.75;0.70;;;23.20;38.30;;;;;;5073048;28;20384;-14
2022/11/06 10:46:55;;;;;;;0.70;0.70;;;23.60;36.10;;;;;;5050634;28;20013;-17
2022/11/06 10:49:21;;;;;;;1.05;0.93;;;24.00;35.50;;;;;;5042963;28;20037;-15
2022/11/06 10:52:24;;;;;;;2.75;1.75;;;24.30;35.60;;;;;;5050411;28;20036;-15
2022/11/06 10:55:03;;;;;;;1.40;0.88;;;24.50;34.60;;;;;;5050506;28;20524;-15
2022/11/06 10:58:00;;;;;;;2.50;1.65;;;24.70;35.20;;;;;;5050619;28;20033;-15
2022/11/06 11:00:26;;;;;;;5.32;1.27;;;25.00;34.70;;;;;;4973362;28;20031;-14
2022/11/06 11:03:02;;;;;;;1.10;1.00;;;25.20;34.30;;;;;;4975948;28;20041;-14
2022/11/06 11:05:39;;;;;;;1.58;0.77;;;25.30;34.10;;;;;;4975673;28;20030;-14
2022/11/06 11:08:06;;;;;;;1.30;0.98;;;25.20;33.30;;;;;;4975610;28;20085;-14
2022/11/06 11:10:35;;;;;;;0.90;0.90;;;25.10;34.90;;;;;;4975523;28;20038;-14
2022/11/06 11:13:04;;;;;;;1.75;1.27;;;25.20;34.70;;;;;;4975176;28;20105;-15
2022/11/06 11:15:46;;;;;;;1.17;1.08;;;25.40;34.80;;;;;;4975395;28;20041;-15
2022/11/06 11:18:12;;;;;;;1.42;1.10;;;25.50;33.10;;;;;;4975463;28;20618;-15
2022/11/06 11:20:40;;;;;;;2.03;1.33;;;25.70;34.00;;;;;;4990995;28;20117;-15
2022/11/06 11:23:22;;;;;;;2.30;1.42;;;25.90;33.50;;;;;;5014045;28;20037;-15
2022/11/06 11:25:56;;;;;;;2.35;1.77;;;26.10;33.80;;;;;;5014283;28;20427;-14
2022/11/06 11:28:29;;;;;;;2.10;1.42;;;26.30;31.00;;;;;;5014240;28;20437;-15
2022/11/06 11:31:12;;;;;;;2.47;1.70;;;26.30;32.30;;;;;;5014124;28;20033;-15
2022/11/06 11:33:50;;;;;;;1.80;1.70;;;26.40;32.20;;;;;;5013829;28;20057;-15
2022/11/06 11:36:16;;;;;;;3.67;1.60;;;26.60;30.50;;;;;;5016738;28;20032;-14
2022/11/06 11:38:43;;;;;;;1.50;1.40;;;26.60;31.00;;;;;;5075903;28;20028;-15
2022/11/06 11:41:20;;;;;;;2.28;1.60;;;26.60;31.50;;;;;;5075848;28;20031;-15
2022/11/06 11:44:12;;;;;;;1.60;1.27;;;26.70;30.50;;;;;;5074491;28;20060;-16
2022/11/06 11:46:56;;;;;;;2.97;1.93;;;26.80;30.90;;;;;;5076004;28;20028;-14
2022/11/06 11:49:33;;;;;;;3.90;2.15;;;26.80;31.40;;;;;;5076026;28;20085;-15
2022/11/06 11:52:04;;;;;;;3.30;2.28;;;26.80;31.50;;;;;;5075908;28;20119;-15
2022/11/06 11:54:34;;;;;;;3.17;2.17;;;26.60;31.40;;;;;;5075373;28;20036;-14
2022/11/06 11:57:16;;;;;;;3.22;2.30;;;26.30;31.90;;;;;;5075227;28;20036;-15
2022/11/06 11:59:46;;;;;;;4.32;2.50;;;26.10;30.00;;;;;;5076564;28;20028;-15
2022/11/06 12:02:29;;;;;;;3.38;2.08;;;26.10;31.80;;;;;;5075323;28;20024;-15
2022/11/06 12:05:04;;;;;;;2.55;1.95;;;26.10;31.60;;;;;;5075781;28;20021;-15
2022/11/06 12:07:34;;;;;;;5.07;2.55;;;26.10;32.20;;;;;;5075653;28;20032;-15
2022/11/06 12:10:11;;;;;;;4.47;2.38;;;26.10;31.90;;;;;;5075200;28;20070;-15
2022/11/06 12:12:37;;;;;;;4.53;2.50;;;25.70;32.20;;;;;;5074680;28;20063;-15
2022/11/06 12:15:20;;;;;;;3.25;2.10;;;25.20;33.20;;;;;;5075043;28;20052;-15
2022/11/06 12:17:58;;;;;;;5.05;2.50;;;25.20;33.50;;;;;;5075877;28;20056;-15
2022/11/06 12:20:51;;;;;;;4.20;2.47;;;25.50;32.00;;;;;;5075677;28;20056;-15
2022/11/06 12:23:30;;;;;;;3.88;2.50;;;25.70;32.10;;;;;;5072230;28;20024;-15
2022/11/06 12:26:33;;;;;;;2.65;2.17;;;25.80;31.90;;;;;;5075200;28;20021;-15
2022/11/06 12:29:14;;;;;;;3.53;2.17;;;25.80;32.30;;;;;;5074756;28;20028;-15
2022/11/06 12:32:22;;;;;;;4.63;2.05;;;25.70;31.70;;;;;;5074581;28;20020;-15
2022/11/06 12:35:02;;;;;;;4.85;2.63;;;25.50;33.10;;;;;;5052509;28;20029;-15
2022/11/06 12:37:49;;;;;;;4.45;2.20;;;25.50;32.90;;;;;;5052570;28;20534;-15
2022/11/06 12:40:29;;;;;;;4.10;2.47;;;25.60;32.90;;;;;;5052763;28;20067;-14
2022/11/06 12:43:22;;;;;;;3.45;2.08;;;25.70;32.90;;;;;;5052231;28;20043;-14
2022/11/06 12:45:48;;;;;;;4.03;2.63;;;25.90;31.90;;;;;;5052593;28;20120;-15
2022/11/06 12:49:02;;;;;;;2.95;2.20;;;26.00;32.60;;;;;;5052640;28;20025;-17
2022/11/06 12:51:46;;;;;;;;;;;25.80;32.60;;;;;;5052678;28;20453;-15
2022/11/06 12:54:41;;;;;;;;;;;25.40;32.30;;;;;;5052685;28;19912;-15
2022/11/06 12:57:31;;;;;;;3.75;2.33;;;25.30;34.10;;;;;;5035069;28;19971;-15
2022/11/06 13:00:20;;;;;;;3.33;2.30;;;25.00;33.80;;;;;;5052176;28;20124;-15
2022/11/06 13:02:58;;;;;;;4.30;2.40;;;24.90;34.90;;;;;;5051979;28;20025;-17
2022/11/06 13:06:15;;;;;;;5.22;2.58;;;24.70;35.20;;;;;;5062312;28;20426;-15
2022/11/06 13:08:55;;;;;;;5.57;2.45;;;24.60;34.50;;;;;;5052015;28;20031;-15
2022/11/06 13:11:47;;;;;;;3.45;2.40;;;24.40;35.10;;;;;;5052413;28;20040;-15
2022/11/06 13:14:19;;;;;;;4.60;2.33;;;24.40;35.10;;;;;;5015379;28;20049;-15
2022/11/06 13:17:11;;;;;;;3.28;2.10;;;24.40;35.10;;;;;;5052055;28;20505;-14
2022/11/06 13:19:48;;;;;;;4.30;2.30;;;24.40;34.20;;;;;;5051740;28;20060;-15
2022/11/06 13:22:29;;;;;;;4.28;2.28;;;24.50;34.80;;;;;;5051659;28;20389;-14
2022/11/06 13:25:22;;;;;;;3.38;2.10;;;24.60;33.80;;;;;;5051578;28;20037;-15
2022/11/06 13:28:10;;;;;;;3.75;2.50;;;24.70;34.50;;;;;;4973097;28;20078;-15
2022/11/06 13:30:38;;;;;;;4.85;2.60;;;24.80;34.80;;;;;;4973009;28;20038;-15